Time;durP1;ratioP1;P1;durP2;ratioP2;P2;SDS_P1;SDS_P2;PMS_P1;PMS_P2;Temp;Humidity;BMP_temperature;BMP_pressure;BME280_temperature;BME280_humidity;BME280_pressure;Samples;Min_cycle;Max_cycle;Signal;HPM_P1;HPM_P2
2023/09/23 00:00:56;;;;;;;;;;;13.60;99.90;;;;;;5056778;28;20043;-56
2023/09/23 00:03:23;;;;;;;4.75;3.90;;;13.50;99.90;;;;;;5054871;28;19917;-56
2023/09/23 00:05:49;;;;;;;5.13;4.10;;;13.60;99.90;;;;;;5053319;28;20045;-58
2023/09/23 00:08:18;;;;;;;;;;;13.60;99.90;;;;;;5059661;28;20033;-57
2023/09/23 00:10:44;;;;;;;4.53;4.13;;;13.60;99.90;;;;;;5056948;28;19917;-57
2023/09/23 00:13:10;;;;;;;;;;;13.60;99.90;;;;;;5062049;28;20461;-57
2023/09/23 00:15:40;;;;;;;7.05;4.85;;;13.60;99.90;;;;;;5059881;28;19924;-57
2023/09/23 00:18:06;;;;;;;6.65;4.45;;;13.60;99.90;;;;;;5057740;28;20521;-57
2023/09/23 00:20:32;;;;;;;4.82;4.43;;;13.60;99.90;;;;;;5058634;28;20037;-57
2023/09/23 00:22:58;;;;;;;6.18;5.68;;;13.60;99.90;;;;;;5056034;28;20621;-58
2023/09/23 00:25:24;;;;;;;5.85;5.35;;;13.60;99.90;;;;;;5054030;28;20203;-58
2023/09/23 00:27:54;;;;;;;5.80;5.40;;;13.60;99.90;;;;;;5053022;28;20036;-57
2023/09/23 00:30:22;;;;;;;10.57;6.07;;;13.60;99.90;;;;;;5052644;28;20048;-57
2023/09/23 00:32:48;;;;;;;6.13;5.55;;;13.60;99.90;;;;;;5052513;28;20045;-58
2023/09/23 00:35:15;;;;;;;6.18;5.57;;;13.60;99.90;;;;;;5054278;28;20037;-57
2023/09/23 00:37:42;;;;;;;6.82;6.20;;;13.60;99.90;;;;;;5052165;28;20049;-56
2023/09/23 00:40:23;;;;;;;7.03;6.32;;;13.70;99.90;;;;;;5053633;28;20094;-57
2023/09/23 00:42:50;;;;;;;7.97;5.60;;;13.70;99.90;;;;;;5049016;28;20039;-57
2023/09/23 00:45:17;;;;;;;;;;;13.70;99.90;;;;;;5054889;28;20036;-57
2023/09/23 00:47:45;;;;;;;6.30;5.80;;;13.60;99.90;;;;;;5056754;28;19916;-58
2023/09/23 00:50:18;;;;;;;5.90;5.40;;;13.70;99.90;;;;;;5059291;28;20515;-57
2023/09/23 00:52:51;;;;;;;6.07;5.22;;;13.60;99.90;;;;;;5054942;28;20457;-56
2023/09/23 00:55:17;;;;;;;4.80;4.40;;;13.60;99.90;;;;;;5061897;28;20098;-57
2023/09/23 00:57:48;;;;;;;4.45;3.83;;;13.60;99.90;;;;;;5053165;28;20037;-57
2023/09/23 01:00:24;;;;;;;4.38;3.92;;;13.50;99.90;;;;;;5055406;28;20044;-55
2023/09/23 01:02:50;;;;;;;4.53;4.20;;;13.50;99.90;;;;;;5054857;28;20457;-58
2023/09/23 01:05:18;;;;;;;6.35;4.45;;;13.50;99.90;;;;;;5054021;28;20115;-56
2023/09/23 01:07:45;;;;;;;6.03;4.28;;;13.50;99.90;;;;;;5046556;28;20029;-58
2023/09/23 01:10:12;;;;;;;3.35;3.13;;;13.40;99.90;;;;;;5051886;28;20072;-57
2023/09/23 01:12:38;;;;;;;3.65;3.35;;;13.40;99.90;;;;;;5056189;28;20051;-57
2023/09/23 01:15:17;;;;;;;4.63;3.15;;;13.30;99.90;;;;;;5059133;28;20040;-57
2023/09/23 01:17:46;;;;;;;3.03;2.40;;;13.30;99.90;;;;;;5049190;28;20041;-56
2023/09/23 01:20:13;;;;;;;1.73;1.63;;;13.30;99.90;;;;;;5054987;28;20040;-55
2023/09/23 01:22:39;;;;;;;2.13;1.40;;;13.30;99.90;;;;;;5056477;28;20051;-55
2023/09/23 01:25:06;;;;;;;3.28;1.08;;;13.30;99.90;;;;;;5058115;28;20503;-56
2023/09/23 01:27:34;;;;;;;3.40;1.52;;;13.20;99.90;;;;;;5055405;28;20108;-55
2023/09/23 01:30:04;;;;;;;1.88;1.73;;;13.20;99.90;;;;;;5056754;28;20040;-56
2023/09/23 01:32:53;;;;;;;3.47;1.85;;;13.20;99.90;;;;;;5060143;28;20060;-56
2023/09/23 01:35:20;;;;;;;2.15;1.98;;;13.20;99.90;;;;;;5057658;28;20117;-57
2023/09/23 01:37:48;;;;;;;2.70;2.50;;;13.20;99.90;;;;;;5054164;28;20045;-57
2023/09/23 01:40:17;;;;;;;3.72;2.78;;;13.20;99.90;;;;;;5054927;28;20088;-56
2023/09/23 01:42:51;;;;;;;2.80;2.60;;;13.20;99.90;;;;;;5054985;28;20028;-56
2023/09/23 01:45:19;;;;;;;5.07;3.63;;;13.10;99.90;;;;;;5053822;28;20048;-55
2023/09/23 01:47:45;;;;;;;4.85;3.80;;;13.10;99.90;;;;;;5050547;28;20404;-57
2023/09/23 01:50:13;;;;;;;4.22;3.78;;;13.10;99.90;;;;;;5053761;28;20060;-55
2023/09/23 01:52:40;;;;;;;5.85;4.07;;;13.10;99.90;;;;;;5053366;28;20041;-56
2023/09/23 01:55:07;;;;;;;5.72;5.10;;;13.10;99.90;;;;;;5053665;28;20094;-56
2023/09/23 01:57:33;;;;;;;4.43;4.13;;;13.10;99.90;;;;;;5052569;28;20037;-56
2023/09/23 02:00:00;;;;;;;5.00;4.50;;;13.10;99.90;;;;;;5049565;28;20037;-57
2023/09/23 02:02:27;;;;;;;5.32;4.88;;;13.10;99.90;;;;;;5050636;28;20040;-57
2023/09/23 02:04:53;;;;;;;4.57;4.15;;;13.10;99.90;;;;;;5051497;28;20262;-56
2023/09/23 02:07:19;;;;;;;4.43;4.05;;;13.00;99.90;;;;;;5052088;28;20033;-58
2023/09/23 02:09:45;;;;;;;7.93;4.30;;;13.00;99.90;;;;;;5052362;28;20043;-57
2023/09/23 02:12:12;;;;;;;5.15;3.75;;;13.00;99.90;;;;;;5051135;28;20317;-56
2023/09/23 02:14:41;;;;;;;4.05;3.60;;;13.00;99.90;;;;;;5053901;28;20050;-57
2023/09/23 02:17:08;;;;;;;3.20;2.90;;;13.00;99.90;;;;;;5052896;28;20051;-57
2023/09/23 02:19:33;;;;;;;4.05;2.67;;;13.00;99.90;;;;;;5047992;28;20100;-56
2023/09/23 02:22:03;;;;;;;4.22;3.92;;;12.90;99.90;;;;;;5055834;28;20029;-53
2023/09/23 02:24:31;;;;;;;2.15;1.95;;;12.90;99.90;;;;;;5055682;28;20495;-56
2023/09/23 02:26:57;;;;;;;2.17;2.08;;;12.90;99.90;;;;;;5054102;28;20044;-55
2023/09/23 02:29:22;;;;;;;3.63;3.10;;;12.90;99.90;;;;;;5050516;28;20053;-56
2023/09/23 02:31:49;;;;;;;2.67;2.30;;;12.80;99.90;;;;;;5053694;28;20403;-57
2023/09/23 02:34:16;;;;;;;4.55;2.33;;;12.80;99.90;;;;;;5049917;28;20503;-55
2023/09/23 02:36:45;;;;;;;4.45;3.35;;;12.80;99.90;;;;;;5050551;28;20098;-57
2023/09/23 02:39:20;;;;;;;2.95;2.72;;;12.80;99.90;;;;;;5051199;28;20122;-56
2023/09/23 02:41:47;;;;;;;3.75;3.10;;;12.70;99.90;;;;;;5048943;28;20036;-57
2023/09/23 02:44:19;;;;;;;3.40;3.10;;;12.80;99.90;;;;;;5049172;28;20236;-55
2023/09/23 02:46:46;;;;;;;5.80;3.53;;;12.80;99.90;;;;;;5054673;28;20032;-57
2023/09/23 02:49:15;;;;;;;5.40;4.90;;;12.70;99.90;;;;;;5055107;28;20049;-56
2023/09/23 02:51:41;;;;;;;4.95;4.45;;;12.70;99.90;;;;;;5055899;28;20032;-56
2023/09/23 02:54:09;;;;;;;5.90;5.40;;;12.60;99.90;;;;;;5055104;28;20076;-57
2023/09/23 02:56:35;;;;;;;7.97;5.35;;;12.60;99.90;;;;;;5064074;28;20538;-57
2023/09/23 02:59:04;;;;;;;6.50;5.00;;;12.40;99.90;;;;;;5057745;28;20523;-57
2023/09/23 03:01:30;;;;;;;5.80;5.30;;;12.50;99.90;;;;;;5059940;28;20072;-56
2023/09/23 03:03:56;;;;;;;7.20;6.10;;;12.40;99.90;;;;;;5056725;28;20443;-56
2023/09/23 03:06:25;;;;;;;6.97;6.07;;;12.40;99.90;;;;;;5054591;28;20032;-57
2023/09/23 03:08:54;;;;;;;7.03;6.40;;;12.30;99.90;;;;;;5057641;28;20449;-54
2023/09/23 03:11:20;;;;;;;7.50;6.70;;;12.30;99.90;;;;;;5054808;28;20048;-56
2023/09/23 03:13:46;;;;;;;8.45;7.65;;;12.30;99.90;;;;;;5053595;28;20055;-57
2023/09/23 03:16:16;;;;;;;9.07;8.15;;;12.30;99.90;;;;;;5055107;28;20033;-55
2023/09/23 03:18:54;;;;;;;8.82;8.02;;;12.20;99.90;;;;;;5048278;28;20052;-55
2023/09/23 03:21:20;;;;;;;7.30;6.70;;;12.20;99.90;;;;;;5056174;28;20056;-56
2023/09/23 03:23:46;;;;;;;9.85;7.78;;;12.20;99.90;;;;;;5053838;28;20029;-57
2023/09/23 03:26:12;;;;;;;8.75;7.93;;;12.20;99.90;;;;;;5054390;28;20044;-57
2023/09/23 03:28:41;;;;;;;10.70;7.93;;;12.20;99.90;;;;;;5054716;28;20047;-54
2023/09/23 03:31:08;;;;;;;9.95;7.95;;;12.20;99.90;;;;;;5055653;28;20670;-56
2023/09/23 03:33:35;;;;;;;8.73;7.82;;;12.20;99.90;;;;;;5058046;28;20098;-57
2023/09/23 03:36:01;;;;;;;;;;;12.10;99.90;;;;;;5056476;28;20403;-55
2023/09/23 03:38:28;;;;;;;9.02;7.65;;;12.10;99.90;;;;;;5058529;28;19921;-57
2023/09/23 03:40:59;;;;;;;12.18;8.85;;;12.10;99.90;;;;;;5056559;28;20040;-56
2023/09/23 03:43:25;;;;;;;11.80;9.32;;;12.00;99.90;;;;;;5058573;28;20503;-57
2023/09/23 03:45:51;;;;;;;;;;;12.00;99.90;;;;;;5057560;28;20037;-57
2023/09/23 03:48:17;;;;;;;12.00;9.55;;;12.00;99.90;;;;;;5056175;28;19958;-56
2023/09/23 03:50:43;;;;;;;13.55;9.50;;;11.90;99.90;;;;;;5053406;28;20036;-57
2023/09/23 03:53:11;;;;;;;10.88;9.82;;;11.90;99.90;;;;;;5053483;28;20213;-53
2023/09/23 03:55:38;;;;;;;12.05;10.85;;;11.80;99.90;;;;;;5052897;28;20063;-57
2023/09/23 03:58:04;;;;;;;11.18;10.13;;;11.90;99.90;;;;;;5053468;28;20063;-57
2023/09/23 04:00:33;;;;;;;11.95;10.65;;;11.80;99.90;;;;;;5053868;28;20037;-56
2023/09/23 04:02:59;;;;;;;13.43;10.98;;;11.80;99.90;;;;;;5053849;28;20036;-56
2023/09/23 04:05:26;;;;;;;12.75;11.45;;;11.80;99.90;;;;;;5053074;28;20066;-57
2023/09/23 04:07:52;;;;;;;13.48;9.48;;;11.80;99.90;;;;;;5053116;28;20047;-57
2023/09/23 04:10:19;;;;;;;12.13;10.15;;;11.70;99.90;;;;;;5053417;28;20115;-56
2023/09/23 04:12:46;;;;;;;11.80;10.60;;;11.70;99.90;;;;;;5053622;28;20070;-57
2023/09/23 04:15:11;;;;;;;;;;;11.70;99.90;;;;;;5053898;28;20048;-57
2023/09/23 04:17:38;;;;;;;12.85;10.85;;;11.70;99.90;;;;;;5055843;28;19927;-57
2023/09/23 04:20:10;;;;;;;;;;;11.70;99.90;;;;;;5049998;28;20419;-56
2023/09/23 04:22:41;;;;;;;14.43;10.70;;;11.60;99.90;;;;;;5055238;28;19925;-55
2023/09/23 04:25:08;;;;;;;15.13;12.80;;;11.70;99.90;;;;;;5055489;28;20115;-55
2023/09/23 04:27:36;;;;;;;16.42;11.32;;;11.60;99.90;;;;;;5056164;28;20045;-57
2023/09/23 04:30:11;;;;;;;16.45;13.00;;;11.60;99.90;;;;;;5052149;28;20040;-55
2023/09/23 04:32:41;;;;;;;15.15;12.13;;;11.60;99.90;;;;;;5051333;28;20044;-57
2023/09/23 04:35:08;;;;;;;14.40;11.57;;;11.60;99.90;;;;;;5053330;28;20147;-57
2023/09/23 04:37:39;;;;;;;15.30;12.98;;;11.60;99.90;;;;;;5052050;28;20075;-57
2023/09/23 04:40:10;;;;;;;20.38;15.63;;;11.60;99.90;;;;;;5052777;28;20407;-55
2023/09/23 04:42:40;;;;;;;17.55;13.90;;;11.60;99.90;;;;;;5053923;28;20352;-56
2023/09/23 04:45:10;;;;;;;18.63;14.32;;;11.60;99.90;;;;;;5051013;28;20112;-55
2023/09/23 04:47:40;;;;;;;16.85;14.15;;;11.60;99.90;;;;;;5052615;28;20068;-56
2023/09/23 04:50:07;;;;;;;18.38;14.85;;;11.50;99.90;;;;;;5054535;28;20047;-57
2023/09/23 04:52:33;;;;;;;19.88;16.20;;;11.60;99.90;;;;;;5054564;28;20061;-57
2023/09/23 04:54:59;;;;;;;21.98;17.77;;;11.60;99.90;;;;;;5055956;28;20079;-56
2023/09/23 04:57:25;;;;;;;22.40;17.75;;;11.60;99.90;;;;;;5057321;28;20037;-58
2023/09/23 04:59:52;;;;;;;23.60;17.88;;;11.60;99.90;;;;;;5054851;28;20479;-57
2023/09/23 05:02:18;;;;;;;29.98;19.35;;;11.60;99.90;;;;;;5053690;28;20112;-56
2023/09/23 05:04:46;;;;;;;28.38;21.48;;;11.60;99.90;;;;;;5055687;28;20579;-57
2023/09/23 05:07:13;;;;;;;26.85;20.13;;;11.60;99.90;;;;;;5053955;28;20052;-54
2023/09/23 05:09:39;;;;;;;;;;;11.60;99.90;;;;;;5054594;28;20045;-57
2023/09/23 05:12:05;;;;;;;28.85;20.40;;;11.60;99.90;;;;;;5051589;28;19995;-57
2023/09/23 05:14:30;;;;;;;28.67;22.80;;;11.60;99.90;;;;;;5051733;28;20115;-54
2023/09/23 05:16:58;;;;;;;29.55;22.88;;;11.60;99.90;;;;;;5052397;28;20061;-57
2023/09/23 05:19:25;;;;;;;31.05;23.13;;;11.60;99.90;;;;;;5049362;28;20226;-56
2023/09/23 05:21:51;;;;;;;32.95;23.50;;;11.60;99.90;;;;;;5047223;28;20033;-56
2023/09/23 05:24:17;;;;;;;37.10;26.75;;;11.70;99.90;;;;;;5049988;28;20043;-57
2023/09/23 05:26:43;;;;;;;37.15;26.10;;;11.60;99.90;;;;;;5052582;28;20051;-57
2023/09/23 05:29:09;;;;;;;;;;;11.70;99.90;;;;;;5053632;28;20041;-55
2023/09/23 05:31:36;;;;;;;35.10;25.63;;;11.70;99.90;;;;;;5054974;28;19917;-57
2023/09/23 05:34:03;;;;;;;33.25;24.88;;;11.70;99.90;;;;;;5054746;28;20057;-55
2023/09/23 05:36:29;;;;;;;36.58;26.73;;;11.70;99.90;;;;;;5056613;28;20119;-57
2023/09/23 05:38:55;;;;;;;34.10;26.25;;;11.70;99.90;;;;;;5056515;28;20068;-57
2023/09/23 05:41:22;;;;;;;33.70;26.10;;;11.70;99.90;;;;;;5053796;28;20067;-57
2023/09/23 05:43:49;;;;;;;37.92;28.45;;;11.80;99.90;;;;;;5054108;28;20039;-55
2023/09/23 05:46:15;;;;;;;39.28;29.40;;;11.70;99.90;;;;;;5056024;28;20049;-57
2023/09/23 05:48:40;;;;;;;42.90;30.15;;;11.80;99.90;;;;;;5051724;28;20033;-57
2023/09/23 05:51:06;;;;;;;37.65;30.67;;;11.80;99.90;;;;;;5053140;28;20090;-56
2023/09/23 05:53:33;;;;;;;37.28;28.98;;;11.80;99.90;;;;;;5053130;28;20045;-57
2023/09/23 05:55:59;;;;;;;;;;;11.80;99.90;;;;;;5055034;28;20032;-57
2023/09/23 05:58:24;;;;;;;39.38;29.80;;;11.80;99.90;;;;;;5053673;28;19967;-55
2023/09/23 06:00:51;;;;;;;38.17;29.83;;;11.80;99.90;;;;;;5052769;28;20065;-56
2023/09/23 06:03:17;;;;;;;38.92;29.67;;;11.80;99.90;;;;;;5051280;28;21388;-53
2023/09/23 06:05:46;;;;;;;38.47;29.13;;;11.90;99.90;;;;;;5052840;28;20045;-57
2023/09/23 06:08:12;;;;;;;38.65;28.63;;;11.90;99.90;;;;;;5057109;28;20479;-57
2023/09/23 06:10:38;;;;;;;;;;;11.90;99.90;;;;;;5061310;28;20043;-56
2023/09/23 06:13:10;;;;;;;47.03;31.92;;;11.90;99.90;;;;;;5060202;28;20036;-56
2023/09/23 06:15:36;;;;;;;39.60;30.45;;;12.00;99.90;;;;;;5059640;28;20048;-57
2023/09/23 06:18:02;;;;;;;42.03;31.02;;;12.00;99.90;;;;;;5057370;28;20449;-56
2023/09/23 06:20:28;;;;;;;39.45;29.92;;;12.00;99.90;;;;;;5059520;28;20052;-57
2023/09/23 06:22:53;;;;;;;44.67;30.75;;;12.00;99.90;;;;;;5058639;28;20039;-57
2023/09/23 06:25:20;;;;;;;39.13;30.40;;;12.00;99.90;;;;;;5064548;28;20116;-57
2023/09/23 06:27:46;;;;;;;42.30;31.40;;;12.10;99.90;;;;;;5067035;28;20039;-55
2023/09/23 06:30:15;;;;;;;38.17;29.42;;;12.00;99.90;;;;;;5063296;28;20052;-57
2023/09/23 06:32:41;;;;;;;41.47;31.73;;;12.10;99.90;;;;;;5059433;28;20036;-57
2023/09/23 06:35:09;;;;;;;40.45;31.08;;;12.10;99.90;;;;;;5060310;28;20102;-57
2023/09/23 06:37:35;;;;;;;37.58;29.42;;;12.10;99.90;;;;;;5065669;28;20043;-56
2023/09/23 06:40:01;;;;;;;48.78;30.02;;;12.10;99.90;;;;;;5065734;28;20036;-57
2023/09/23 06:42:26;;;;;;;38.13;29.40;;;12.20;99.90;;;;;;5065423;28;20415;-57
2023/09/23 06:44:52;;;;;;;38.67;29.10;;;12.20;99.90;;;;;;5066285;28;20244;-56
2023/09/23 06:47:17;;;;;;;37.47;30.23;;;12.30;99.90;;;;;;5060975;28;20036;-55
2023/09/23 06:49:43;;;;;;;38.63;28.90;;;12.40;99.90;;;;;;5063919;28;20036;-56
2023/09/23 06:52:09;;;;;;;34.92;27.73;;;12.40;99.90;;;;;;5061734;28;20040;-57
2023/09/23 06:54:34;;;;;;;36.00;27.42;;;12.40;99.90;;;;;;5058965;28;20569;-57
2023/09/23 06:57:00;;;;;;;37.83;29.40;;;12.40;99.90;;;;;;5062037;28;20281;-57
2023/09/23 06:59:26;;;;;;;36.63;28.88;;;12.50;99.90;;;;;;5054308;28;20045;-59
2023/09/23 07:01:51;;;;;;;42.10;30.03;;;12.50;99.90;;;;;;5047824;28;20120;-57
2023/09/23 07:04:17;;;;;;;36.87;28.07;;;12.50;99.90;;;;;;5056220;28;20784;-58
2023/09/23 07:06:43;;;;;;;34.95;27.50;;;12.50;99.90;;;;;;5051239;28;20359;-56
2023/09/23 07:09:08;;;;;;;37.60;29.52;;;12.50;99.90;;;;;;5050189;28;20044;-56
2023/09/23 07:11:34;;;;;;;31.55;26.30;;;12.60;99.90;;;;;;5044578;28;20422;-56
2023/09/23 07:14:03;;;;;;;36.70;28.60;;;12.60;99.90;;;;;;5048040;28;20033;-59
2023/09/23 07:16:29;;;;;;;39.13;28.38;;;12.60;99.90;;;;;;5047304;28;20052;-58
2023/09/23 07:18:54;;;;;;;33.00;26.70;;;12.60;99.90;;;;;;5044201;28;20048;-58
2023/09/23 07:21:20;;;;;;;35.17;27.90;;;12.60;99.90;;;;;;5050126;28;20045;-57
2023/09/23 07:23:46;;;;;;;35.25;26.65;;;12.60;99.90;;;;;;5043337;28;20029;-57
2023/09/23 07:26:20;;;;;;;36.67;27.83;;;12.70;99.90;;;;;;5055021;28;20460;-57
2023/09/23 07:28:45;;;;;;;36.53;27.25;;;12.80;99.90;;;;;;5059973;28;20087;-57
2023/09/23 07:31:11;;;;;;;30.93;25.23;;;12.90;99.90;;;;;;5061723;28;20491;-57
2023/09/23 07:33:37;;;;;;;33.42;24.85;;;12.90;99.90;;;;;;5066249;28;20697;-57
2023/09/23 07:36:12;;;;;;;30.70;25.58;;;13.00;99.90;;;;;;5047976;28;20051;-56
2023/09/23 07:38:41;;;;;;;31.90;23.48;;;13.10;99.90;;;;;;5063402;28;20124;-54
2023/09/23 07:41:07;;;;;;;31.05;24.30;;;13.10;99.90;;;;;;5059605;28;20056;-57
2023/09/23 07:43:33;;;;;;;31.50;24.42;;;13.20;99.90;;;;;;5059191;28;20025;-56
2023/09/23 07:45:59;;;;;;;28.92;22.83;;;13.20;99.90;;;;;;5061083;28;20036;-57
2023/09/23 07:48:24;;;;;;;28.25;23.05;;;13.20;99.90;;;;;;5062455;28;20120;-57
2023/09/23 07:50:50;;;;;;;31.25;24.02;;;13.20;99.90;;;;;;5062656;28;20056;-57
2023/09/23 07:53:16;;;;;;;28.52;21.58;;;13.20;99.90;;;;;;5061919;28;20154;-55
2023/09/23 07:55:43;;;;;;;29.45;21.98;;;13.30;99.90;;;;;;5061846;28;20044;-57
2023/09/23 07:58:09;;;;;;;28.17;21.73;;;13.40;99.90;;;;;;5063608;28;20066;-57
2023/09/23 08:00:35;;;;;;;29.45;22.20;;;13.40;99.90;;;;;;5058633;28;20037;-54
2023/09/23 08:03:03;;;;;;;29.20;22.83;;;13.40;99.90;;;;;;5062256;28;20124;-58
2023/09/23 08:05:29;;;;;;;26.73;21.55;;;13.40;99.90;;;;;;5060991;28;20167;-57
2023/09/23 08:07:55;;;;;;;25.48;20.55;;;13.50;99.90;;;;;;5057985;28;20418;-57
2023/09/23 08:10:21;;;;;;;24.95;20.35;;;13.60;99.90;;;;;;5056996;28;21166;-56
2023/09/23 08:12:47;;;;;;;23.73;19.63;;;13.70;99.90;;;;;;5061222;28;20088;-56
2023/09/23 08:15:13;;;;;;;22.92;19.92;;;13.80;99.90;;;;;;5059562;28;20049;-57
2023/09/23 08:17:39;;;;;;;27.58;22.50;;;13.80;99.90;;;;;;5058397;28;20384;-57
2023/09/23 08:20:19;;;;;;;;;;;13.90;99.90;;;;;;5062021;28;20142;-57
2023/09/23 08:22:46;;;;;;;23.58;18.30;;;14.00;99.90;;;;;;5056101;28;19916;-55
2023/09/23 08:25:12;;;;;;;;;;;14.10;99.90;;;;;;5061589;28;20041;-57
2023/09/23 08:27:37;;;;;;;20.25;18.17;;;14.20;99.90;;;;;;5057673;28;19923;-57
2023/09/23 08:30:03;;;;;;;23.27;19.25;;;14.20;99.90;;;;;;5061948;28;20076;-57
2023/09/23 08:32:29;;;;;;;21.42;18.73;;;14.30;99.90;;;;;;5062181;28;20037;-54
2023/09/23 08:34:54;;;;;;;19.23;17.10;;;14.40;99.90;;;;;;5060417;28;20033;-56
2023/09/23 08:37:20;;;;;;;24.30;17.70;;;14.40;99.90;;;;;;5051666;28;20581;-56
2023/09/23 08:39:46;;;;;;;19.55;17.38;;;14.50;99.90;;;;;;5056168;28;20033;-57
2023/09/23 08:42:11;;;;;;;18.60;16.60;;;14.50;99.90;;;;;;5062247;28;20036;-57
2023/09/23 08:44:39;;;;;;;17.70;15.82;;;14.50;99.90;;;;;;5063066;28;20036;-57
2023/09/23 08:47:05;;;;;;;22.48;17.20;;;14.60;99.90;;;;;;5063978;28;20048;-57
2023/09/23 08:49:31;;;;;;;;;;;14.50;99.90;;;;;;5062534;28;20128;-57
2023/09/23 08:51:57;;;;;;;22.23;16.08;;;14.40;99.90;;;;;;5064016;28;19960;-56
2023/09/23 08:54:25;;;;;;;20.27;15.80;;;14.40;99.90;;;;;;5061177;28;20040;-57
2023/09/23 08:56:52;;;;;;;19.67;17.25;;;14.40;99.90;;;;;;5063278;28;20042;-57
2023/09/23 08:59:18;;;;;;;18.98;15.45;;;14.50;99.90;;;;;;5053648;28;20039;-57
2023/09/23 09:01:44;;;;;;;21.33;15.45;;;14.40;99.90;;;;;;5054843;28;20086;-56
2023/09/23 09:04:14;;;;;;;18.50;15.90;;;14.40;99.90;;;;;;5048466;28;20036;-58
2023/09/23 09:06:51;;;;;;;27.52;16.30;;;14.50;99.90;;;;;;5060833;28;20056;-58
2023/09/23 09:09:17;;;;;;;19.00;15.60;;;14.50;99.90;;;;;;5056104;28;20083;-57
2023/09/23 09:11:46;;;;;;;19.25;16.98;;;14.60;99.90;;;;;;5043038;28;20492;-57
2023/09/23 09:14:11;;;;;;;16.52;14.68;;;14.60;99.90;;;;;;5049121;28;20041;-57
2023/09/23 09:16:38;;;;;;;17.90;15.80;;;14.60;99.90;;;;;;5044297;28;20028;-57
2023/09/23 09:19:04;;;;;;;18.80;16.17;;;14.70;99.90;;;;;;5042274;28;20041;-57
2023/09/23 09:21:31;;;;;;;20.45;17.80;;;14.60;99.90;;;;;;5048552;28;20059;-57
2023/09/23 09:23:57;;;;;;;18.58;15.02;;;14.60;99.90;;;;;;5052463;28;20041;-58
2023/09/23 09:26:24;;;;;;;18.17;16.25;;;14.60;99.90;;;;;;5050660;28;20064;-58
2023/09/23 09:28:50;;;;;;;18.40;15.77;;;14.70;99.90;;;;;;5053137;28;20052;-57
2023/09/23 09:31:17;;;;;;;;;;;14.70;99.90;;;;;;5050858;28;20589;-57
2023/09/23 09:33:47;;;;;;;19.63;14.57;;;14.70;99.90;;;;;;5047247;28;19920;-58
2023/09/23 09:36:19;;;;;;;17.00;14.82;;;14.80;99.90;;;;;;5041748;28;20064;-57
2023/09/23 09:38:51;;;;;;;16.55;14.55;;;14.90;99.90;;;;;;5050997;28;20041;-57
2023/09/23 09:41:30;;;;;;;21.33;15.27;;;14.90;99.90;;;;;;5047950;28;20039;-57
2023/09/23 09:44:00;;;;;;;15.55;13.88;;;14.90;99.90;;;;;;5058331;28;20549;-58
2023/09/23 09:46:29;;;;;;;15.00;13.45;;;15.00;99.90;;;;;;5058082;28;20065;-56
2023/09/23 09:48:57;;;;;;;18.27;14.90;;;15.00;99.90;;;;;;5063633;28;20041;-56
2023/09/23 09:51:23;;;;;;;12.77;11.45;;;15.10;99.90;;;;;;5056018;28;20075;-57
2023/09/23 09:53:50;;;;;;;15.55;12.00;;;15.20;99.90;;;;;;5064122;28;20032;-53
2023/09/23 09:56:17;;;;;;;14.52;11.27;;;15.20;99.90;;;;;;5063871;28;20040;-57
2023/09/23 09:58:43;;;;;;;14.27;12.70;;;15.20;99.90;;;;;;5069437;28;20036;-58
2023/09/23 10:01:13;;;;;;;15.05;12.48;;;15.30;99.90;;;;;;5053903;28;20111;-58
2023/09/23 10:03:42;;;;;;;15.20;11.60;;;15.40;99.90;;;;;;5040184;28;20093;-58
2023/09/23 10:06:08;;;;;;;10.90;9.82;;;15.50;99.90;;;;;;5051080;28;20038;-55
2023/09/23 10:08:37;;;;;;;13.48;10.75;;;15.80;99.90;;;;;;5057785;28;20037;-57
2023/09/23 10:11:06;;;;;;;12.60;11.23;;;15.80;99.90;;;;;;5057334;28;20033;-58
2023/09/23 10:13:32;;;;;;;13.55;10.90;;;15.90;99.90;;;;;;5044450;28;20040;-56
2023/09/23 10:16:13;;;;;;;9.45;8.48;;;16.00;99.90;;;;;;5060564;28;20255;-59
2023/09/23 10:18:43;;;;;;;11.27;7.60;;;16.00;99.90;;;;;;5060604;28;20450;-57
2023/09/23 10:21:22;;;;;;;10.63;7.95;;;16.00;99.90;;;;;;5050664;28;20036;-55
2023/09/23 10:23:51;;;;;;;10.57;7.90;;;16.10;99.90;;;;;;5050257;28;20032;-55
2023/09/23 10:26:19;;;;;;;13.20;8.20;;;16.10;99.90;;;;;;5052303;28;20033;-53
2023/09/23 10:29:03;;;;;;;11.30;7.88;;;16.10;99.90;;;;;;5054475;28;20516;-54
2023/09/23 10:31:33;;;;;;;10.32;6.18;;;16.00;99.90;;;;;;5056793;28;20041;-59
2023/09/23 10:34:06;;;;;;;13.65;6.88;;;15.90;99.90;;;;;;5062123;28;20051;-56
2023/09/23 10:36:32;;;;;;;10.95;7.43;;;15.90;99.90;;;;;;5058166;28;20498;-54
2023/09/23 10:38:59;;;;;;;13.68;7.88;;;15.80;99.90;;;;;;5045834;28;20086;-57
2023/09/23 10:41:35;;;;;;;9.02;7.22;;;15.80;99.90;;;;;;5053404;28;20048;-54
2023/09/23 10:44:04;;;;;;;13.83;8.10;;;15.80;99.90;;;;;;5053363;28;20158;-57
2023/09/23 10:46:31;;;;;;;10.23;6.72;;;16.00;99.90;;;;;;5049905;28;20048;-57
2023/09/23 10:48:57;;;;;;;6.93;5.72;;;16.10;99.90;;;;;;5054773;28;20040;-59
2023/09/23 10:51:22;;;;;;;11.90;5.75;;;16.20;99.90;;;;;;5049569;28;20044;-58
2023/09/23 10:53:51;;;;;;;6.20;5.60;;;16.20;99.90;;;;;;5049116;28;20039;-55
2023/09/23 10:56:25;;;;;;;8.20;5.63;;;16.20;99.90;;;;;;5049858;28;20654;-55
2023/09/23 10:58:51;;;;;;;7.90;4.90;;;16.20;99.90;;;;;;5048256;28;20041;-55
2023/09/23 11:01:20;;;;;;;9.20;4.70;;;16.20;99.90;;;;;;5048410;28;20044;-54
2023/09/23 11:03:46;;;;;;;7.53;4.38;;;16.10;99.90;;;;;;5049548;28;20021;-55
2023/09/23 11:06:12;;;;;;;8.95;4.68;;;16.10;99.90;;;;;;5053023;28;20766;-54
2023/09/23 11:08:39;;;;;;;;;;;16.10;99.90;;;;;;5040681;28;20461;-56
2023/09/23 11:11:09;;;;;;;7.70;3.80;;;16.00;99.90;;;;;;5058597;28;19948;-55
2023/09/23 11:13:35;;;;;;;6.22;3.58;;;15.90;99.90;;;;;;5049246;28;20057;-55
2023/09/23 11:16:10;;;;;;;7.88;3.97;;;15.90;99.90;;;;;;5053521;28;20033;-56
2023/09/23 11:18:37;;;;;;;4.63;3.63;;;16.00;99.90;;;;;;5049331;28;20055;-57
2023/09/23 11:21:03;;;;;;;6.13;3.67;;;16.10;99.90;;;;;;5048906;28;20067;-54
2023/09/23 11:23:29;;;;;;;6.35;3.42;;;16.20;99.90;;;;;;5052902;28;20029;-58
2023/09/23 11:25:56;;;;;;;4.43;3.38;;;16.30;99.90;;;;;;5063037;28;20048;-57
2023/09/23 11:28:22;;;;;;;;;;;16.30;99.90;;;;;;5062771;28;20423;-55
2023/09/23 11:30:50;;;;;;;4.53;4.13;;;16.20;99.90;;;;;;5064630;28;19916;-56
2023/09/23 11:33:16;;;;;;;6.97;4.50;;;16.20;99.90;;;;;;5068043;28;20519;-56
2023/09/23 11:35:43;;;;;;;5.15;4.75;;;16.20;99.90;;;;;;5068943;28;20079;-56
2023/09/23 11:38:09;;;;;;;8.27;4.15;;;16.10;99.90;;;;;;5066607;28;20037;-56
2023/09/23 11:40:35;;;;;;;4.63;3.80;;;16.20;99.90;;;;;;5069233;28;20407;-56
2023/09/23 11:43:02;;;;;;;6.30;4.10;;;16.30;99.90;;;;;;5069071;28;20041;-58
2023/09/23 11:45:27;;;;;;;3.80;3.10;;;16.40;99.90;;;;;;5057263;28;20059;-55
2023/09/23 11:47:56;;;;;;;3.53;3.10;;;16.60;99.90;;;;;;5060728;28;20048;-57
2023/09/23 11:50:22;;;;;;;4.30;2.42;;;16.80;99.90;;;;;;5060455;28;20471;-54
2023/09/23 11:52:47;;;;;;;;;;;16.90;99.90;;;;;;5064453;28;20086;-56
2023/09/23 11:55:13;;;;;;;5.60;2.47;;;17.10;99.90;;;;;;5066121;28;19920;-56
2023/09/23 11:57:42;;;;;;;3.03;2.25;;;17.20;99.90;;;;;;5068075;28;20468;-56
2023/09/23 12:00:13;;;;;;;2.80;1.88;;;17.10;99.90;;;;;;5070747;28;20568;-53
2023/09/23 12:02:40;;;;;;;3.53;1.80;;;17.10;99.90;;;;;;5067096;28;20120;-56
2023/09/23 12:05:12;;;;;;;2.97;1.77;;;17.10;99.90;;;;;;5071067;28;20086;-56
2023/09/23 12:07:38;;;;;;;5.28;1.80;;;17.30;99.90;;;;;;5068945;28;20107;-58
2023/09/23 12:10:05;;;;;;;8.40;2.15;;;17.40;99.90;;;;;;5067919;28;20182;-56
2023/09/23 12:12:31;;;;;;;5.30;1.90;;;17.50;99.90;;;;;;5065141;28;20048;-57
2023/09/23 12:14:57;;;;;;;2.47;1.52;;;17.50;99.90;;;;;;5070866;28;20040;-57
2023/09/23 12:17:23;;;;;;;7.32;1.65;;;17.60;99.90;;;;;;5066086;28;20644;-56
2023/09/23 12:19:48;;;;;;;2.60;1.52;;;17.70;99.90;;;;;;5070390;28;20529;-55
2023/09/23 12:22:17;;;;;;;5.07;1.48;;;17.70;99.90;;;;;;5066651;28;20449;-57
2023/09/23 12:24:43;;;;;;;4.47;1.52;;;17.70;99.90;;;;;;5067557;28;20029;-57
2023/09/23 12:27:09;;;;;;;;;;;17.80;99.90;;;;;;5065600;28;20045;-56
2023/09/23 12:29:35;;;;;;;3.72;0.82;;;17.90;99.90;;;;;;5061828;28;19916;-57
2023/09/23 12:32:01;;;;;;;3.25;1.15;;;17.80;99.90;;;;;;5066586;28;20115;-57
2023/09/23 12:34:27;;;;;;;2.33;1.30;;;17.90;99.90;;;;;;5057217;28;20500;-58
2023/09/23 12:36:53;;;;;;;5.32;1.20;;;17.90;99.90;;;;;;5058665;28;20067;-57
2023/09/23 12:39:21;;;;;;;1.38;0.85;;;17.80;99.90;;;;;;5056536;28;20141;-56
2023/09/23 12:41:47;;;;;;;3.15;1.25;;;17.70;99.90;;;;;;5064702;28;20037;-57
2023/09/23 12:44:14;;;;;;;4.18;0.60;;;17.60;99.90;;;;;;5060459;28;20128;-56